createdAt,value
2023-02-18T00:00:42.608Z,1010.07
2023-02-18T00:01:42.595Z,1010.05
2023-02-18T00:02:42.598Z,1010.02
2023-02-18T00:03:42.597Z,1010.11
2023-02-18T00:04:42.541Z,1010.02
2023-02-18T00:05:42.533Z,1010.04
2023-02-18T00:06:42.524Z,1010.05
2023-02-18T00:07:42.515Z,1010.11
2023-02-18T00:08:42.522Z,1010.15
2023-02-18T00:09:42.490Z,1010.08
2023-02-18T00:10:42.664Z,1010.06
2023-02-18T00:11:42.479Z,1010.12
2023-02-18T00:12:42.481Z,1010.06
2023-02-18T00:13:42.469Z,1010.04
2023-02-18T00:14:42.438Z,1010.22
2023-02-18T00:15:42.538Z,1010.09
2023-02-18T00:16:42.423Z,1009.96
2023-02-18T00:17:42.429Z,1010.14
2023-02-18T00:18:42.409Z,1010.06
2023-02-18T00:19:42.379Z,1010.11
2023-02-18T00:20:42.530Z,1010.21
2023-02-18T00:21:42.447Z,1010.11
2023-02-18T00:22:42.346Z,1010.12
2023-02-18T00:23:43.905Z,1010.02
2023-02-18T00:24:42.354Z,1010.16
2023-02-18T00:25:42.331Z,1010.29
2023-02-18T00:26:42.306Z,1010.23
2023-02-18T00:27:42.344Z,1010.27
2023-02-18T00:28:42.278Z,1010.19
2023-02-18T00:29:42.261Z,1010.26
2023-02-18T00:30:42.309Z,1010.34
2023-02-18T00:31:42.423Z,1010.29
2023-02-18T00:32:42.279Z,1010.19
2023-02-18T00:33:42.248Z,1010.25
2023-02-18T00:34:42.217Z,1010.24
2023-02-18T00:35:42.214Z,1010.22
2023-02-18T00:36:42.193Z,1010.17
2023-02-18T00:37:42.189Z,1010.26
2023-02-18T00:38:42.180Z,1010.34
2023-02-18T00:39:42.160Z,1010.25
2023-02-18T00:40:42.180Z,1010.28
2023-02-18T00:41:42.146Z,1010.33
2023-02-18T00:42:42.130Z,1010.30
2023-02-18T00:43:42.141Z,1010.34
2023-02-18T00:44:42.114Z,1010.36
2023-02-18T00:45:42.112Z,1010.47
2023-02-18T00:46:42.182Z,1010.37
2023-02-18T00:47:42.085Z,1010.43
2023-02-18T00:48:42.123Z,1010.35
2023-02-18T00:49:42.074Z,1010.44
2023-02-18T00:50:42.069Z,1010.42
2023-02-18T00:51:42.028Z,1010.44
2023-02-18T00:52:42.033Z,1010.40
2023-02-18T00:53:42.019Z,1010.41
2023-02-18T00:54:42.021Z,1010.44
2023-02-18T00:55:42.023Z,1010.41
2023-02-18T00:56:41.989Z,1010.46
2023-02-18T00:57:42.000Z,1010.62
2023-02-18T00:58:41.971Z,1010.56
2023-02-18T00:59:41.954Z,1010.48
2023-02-18T01:00:41.973Z,1010.51
2023-02-18T01:01:41.964Z,1010.50
2023-02-18T01:02:41.928Z,1010.54
2023-02-18T01:03:42.003Z,1010.55
2023-02-18T01:04:41.963Z,1010.51
2023-02-18T01:05:41.911Z,1010.58
2023-02-18T01:06:41.905Z,1010.49
2023-02-18T01:07:41.891Z,1010.51
2023-02-18T01:08:41.890Z,1010.49
2023-02-18T01:09:41.852Z,1010.52
2023-02-18T01:10:41.883Z,1010.58
2023-02-18T01:11:41.834Z,1010.53
2023-02-18T01:12:41.838Z,1010.40
2023-02-18T01:13:41.805Z,1010.42
2023-02-18T01:14:41.816Z,1010.51
2023-02-18T01:15:41.810Z,1010.44
2023-02-18T01:16:41.781Z,1010.42
2023-02-18T01:17:41.773Z,1010.39
2023-02-18T01:18:41.794Z,1010.37
2023-02-18T01:19:41.744Z,1010.45
2023-02-18T01:20:41.781Z,1010.46
2023-02-18T01:21:41.804Z,1010.36
2023-02-18T01:22:41.727Z,1010.38
2023-02-18T01:23:41.713Z,1010.38
2023-02-18T01:24:41.735Z,1010.38
2023-02-18T01:25:41.734Z,1010.44
2023-02-18T01:26:41.705Z,1010.39
2023-02-18T01:27:41.804Z,1010.47
2023-02-18T01:28:41.671Z,1010.40
2023-02-18T01:29:41.695Z,1010.47
2023-02-18T01:30:41.691Z,1010.45
2023-02-18T01:31:41.756Z,1010.38
2023-02-18T01:32:41.628Z,1010.39
2023-02-18T01:33:41.609Z,1010.40
2023-02-18T01:34:41.624Z,1010.46
2023-02-18T01:35:41.606Z,1010.42
2023-02-18T01:36:41.583Z,1010.31
2023-02-18T01:37:41.657Z,1010.46
2023-02-18T01:38:41.573Z,1010.40
2023-02-18T01:39:41.535Z,1010.45
2023-02-18T01:40:41.551Z,1010.43
2023-02-18T01:41:41.516Z,1010.40
2023-02-18T01:42:41.524Z,1010.37
2023-02-18T01:43:41.490Z,1010.40
2023-02-18T01:44:41.532Z,1010.41
2023-02-18T01:45:41.482Z,1010.49
2023-02-18T01:46:41.493Z,1010.41
2023-02-18T01:47:41.633Z,1010.50
2023-02-18T01:48:41.468Z,1010.40
2023-02-18T01:49:41.601Z,1010.45
2023-02-18T01:50:41.484Z,1010.43
2023-02-18T01:51:41.417Z,1010.44
2023-02-18T01:52:41.427Z,1010.46
2023-02-18T01:53:41.433Z,1010.41
2023-02-18T01:54:41.370Z,1010.59
2023-02-18T01:55:41.447Z,1010.57
2023-02-18T01:56:41.449Z,1010.58
2023-02-18T01:57:41.331Z,1010.56
2023-02-18T01:58:41.350Z,1010.52
2023-02-18T01:59:41.330Z,1010.62
2023-02-18T02:00:41.533Z,1010.50
2023-02-18T02:01:41.367Z,1010.48
2023-02-18T02:02:41.304Z,1010.48
2023-02-18T02:03:41.286Z,1010.48
2023-02-18T02:04:41.271Z,1010.36
2023-02-18T02:05:41.281Z,1010.42
2023-02-18T02:06:41.258Z,1010.34
2023-02-18T02:07:41.265Z,1010.43
2023-02-18T02:08:41.237Z,1010.36
2023-02-18T02:09:41.247Z,1010.41
2023-02-18T02:10:41.218Z,1010.41
2023-02-18T02:11:41.225Z,1010.47
2023-02-18T02:12:41.195Z,1010.43
2023-02-18T02:13:41.185Z,1010.46
2023-02-18T02:14:41.167Z,1010.49
2023-02-18T02:15:41.161Z,1010.51
2023-02-18T02:16:41.186Z,1010.53
2023-02-18T02:17:41.138Z,1010.60
2023-02-18T02:18:41.120Z,1010.66
2023-02-18T02:19:41.118Z,1010.50
2023-02-18T02:20:41.266Z,1010.55
2023-02-18T02:21:41.113Z,1010.50
2023-02-18T02:22:41.081Z,1010.54
2023-02-18T02:23:41.063Z,1010.44
2023-02-18T02:24:41.086Z,1010.45
2023-02-18T02:25:41.085Z,1010.47
2023-02-18T02:26:41.046Z,1010.46
2023-02-18T02:27:41.026Z,1010.32
2023-02-18T02:28:41.093Z,1010.56
2023-02-18T02:29:41.010Z,1010.51
2023-02-18T02:30:41.044Z,1010.56
2023-02-18T02:31:41.020Z,1010.50
2023-02-18T02:32:40.983Z,1010.49
2023-02-18T02:33:40.975Z,1010.54
2023-02-18T02:34:40.962Z,1010.52
2023-02-18T02:35:40.947Z,1010.57
2023-02-18T02:36:40.953Z,1010.63
2023-02-18T02:37:40.956Z,1010.52
2023-02-18T02:38:40.903Z,1010.59
2023-02-18T02:39:40.897Z,1010.51
2023-02-18T02:40:40.903Z,1010.48
2023-02-18T02:41:40.887Z,1010.54
2023-02-18T02:42:40.903Z,1010.58
2023-02-18T02:43:40.885Z,1010.51
2023-02-18T02:44:40.838Z,1010.55
2023-02-18T02:45:40.850Z,1010.62
2023-02-18T02:46:40.843Z,1010.52
2023-02-18T02:47:40.817Z,1010.57
2023-02-18T02:48:40.818Z,1010.49
2023-02-18T02:49:40.802Z,1010.61
2023-02-18T02:50:40.786Z,1010.58
2023-02-18T02:51:40.785Z,1010.55
2023-02-18T02:52:40.794Z,1010.60
2023-02-18T02:53:40.801Z,1010.40
2023-02-18T02:54:46.806Z,1010.61
2023-02-18T02:55:41.377Z,1010.71
2023-02-18T02:56:42.470Z,1010.58
2023-02-18T02:57:40.713Z,1010.57
2023-02-18T02:58:40.690Z,1010.61
2023-02-18T02:59:40.695Z,1010.63
2023-02-18T03:00:40.730Z,1010.61
2023-02-18T03:01:40.698Z,1010.71
2023-02-18T03:02:40.750Z,1010.62
2023-02-18T03:03:40.656Z,1010.68
2023-02-18T03:04:40.670Z,1010.62
2023-02-18T03:05:40.633Z,1010.62
2023-02-18T03:06:40.628Z,1010.65
2023-02-18T03:07:40.613Z,1010.50
2023-02-18T03:08:40.587Z,1010.62
2023-02-18T03:09:40.589Z,1010.61
2023-02-18T03:10:40.603Z,1010.57
2023-02-18T03:11:40.596Z,1010.61
2023-02-18T03:12:40.596Z,1010.58
2023-02-18T03:13:40.541Z,1010.56
2023-02-18T03:14:40.541Z,1010.58
2023-02-18T03:15:40.538Z,1010.58
2023-02-18T03:16:40.615Z,1010.52
2023-02-18T03:17:40.508Z,1010.62
2023-02-18T03:18:40.498Z,1010.58
2023-02-18T03:19:40.491Z,1010.48
2023-02-18T03:20:40.482Z,1010.54
2023-02-18T03:21:40.472Z,1010.55
2023-02-18T03:22:40.436Z,1010.49
2023-02-18T03:23:40.495Z,1010.50
2023-02-18T03:24:40.423Z,1010.47
2023-02-18T03:25:41.452Z,1010.61
2023-02-18T03:26:40.421Z,1010.53
2023-02-18T03:27:40.408Z,1010.61
2023-02-18T03:28:40.411Z,1010.57
2023-02-18T03:29:40.370Z,1010.60
2023-02-18T03:30:40.382Z,1010.53
2023-02-18T03:31:40.606Z,1010.58
2023-02-18T03:32:40.347Z,1010.58
2023-02-18T03:33:40.338Z,1010.60
2023-02-18T03:34:40.317Z,1010.55
2023-02-18T03:35:40.324Z,1010.53
2023-02-18T03:36:40.328Z,1010.58
2023-02-18T03:37:40.293Z,1010.52
2023-02-18T03:38:40.313Z,1010.46
2023-02-18T03:39:40.270Z,1010.54
2023-02-18T03:40:40.262Z,1010.52
2023-02-18T03:41:40.262Z,1010.62
2023-02-18T03:42:40.274Z,1010.55
2023-02-18T03:43:40.235Z,1010.61
2023-02-18T03:44:40.238Z,1010.60
2023-02-18T03:45:40.295Z,1010.58
2023-02-18T03:46:40.230Z,1010.58
2023-02-18T03:47:40.180Z,1010.41
2023-02-18T03:48:40.168Z,1010.60
2023-02-18T03:49:40.152Z,1010.56
2023-02-18T03:50:40.161Z,1010.63
2023-02-18T03:51:40.225Z,1010.60
2023-02-18T03:52:40.128Z,1010.62
2023-02-18T03:53:40.160Z,1010.63
2023-02-18T03:54:40.135Z,1010.65
2023-02-18T03:55:40.230Z,1010.60
2023-02-18T03:56:40.099Z,1010.56
2023-02-18T03:57:40.085Z,1010.52
2023-02-18T03:58:40.072Z,1010.53
2023-02-18T03:59:40.054Z,1010.52
2023-02-18T04:00:40.044Z,1010.55
2023-02-18T04:01:40.048Z,1010.53
2023-02-18T04:02:40.055Z,1010.59
2023-02-18T04:03:40.026Z,1010.54
2023-02-18T04:04:40.108Z,1010.70
2023-02-18T04:05:39.995Z,1010.55
2023-02-18T04:06:39.968Z,1010.68
2023-02-18T04:07:39.993Z,1010.57
2023-02-18T04:08:39.956Z,1010.62
2023-02-18T04:09:39.951Z,1010.63
2023-02-18T04:10:39.943Z,1010.63
2023-02-18T04:11:39.949Z,1010.67
2023-02-18T04:12:39.919Z,1010.60
2023-02-18T04:13:39.907Z,1010.61
2023-02-18T04:14:39.928Z,1010.69
2023-02-18T04:15:39.876Z,1010.66
2023-02-18T04:16:39.903Z,1010.64
2023-02-18T04:17:39.878Z,1010.67
2023-02-18T04:18:39.841Z,1010.67
2023-02-18T04:19:39.867Z,1010.74
2023-02-18T04:20:39.871Z,1010.70
2023-02-18T04:21:39.813Z,1010.74
2023-02-18T04:22:39.815Z,1010.79
2023-02-18T04:23:39.822Z,1010.76
2023-02-18T04:24:39.772Z,1010.74
2023-02-18T04:25:39.781Z,1010.74
2023-02-18T04:26:39.777Z,1010.73
2023-02-18T04:27:39.748Z,1010.80
2023-02-18T04:28:39.741Z,1010.81
2023-02-18T04:29:39.726Z,1010.77
2023-02-18T04:30:39.905Z,1010.81
2023-02-18T04:31:39.875Z,1010.88
2023-02-18T04:32:39.720Z,1010.80
2023-02-18T04:33:39.684Z,1010.92
2023-02-18T04:34:39.718Z,1010.89
2023-02-18T04:35:41.811Z,1010.83
2023-02-18T04:36:39.679Z,1010.89
2023-02-18T04:37:39.664Z,1010.91
2023-02-18T04:38:39.651Z,1010.88
2023-02-18T04:39:39.657Z,1010.88
2023-02-18T04:40:39.638Z,1010.85
2023-02-18T04:41:39.625Z,1010.81
2023-02-18T04:42:39.609Z,1010.91
2023-02-18T04:43:39.601Z,1010.90
2023-02-18T04:44:39.578Z,1010.87
2023-02-18T04:45:39.572Z,1010.83
2023-02-18T04:46:39.570Z,1010.82
2023-02-18T04:47:39.635Z,1010.89
2023-02-18T04:48:39.526Z,1010.89
2023-02-18T04:49:39.521Z,1010.84
2023-02-18T04:50:39.512Z,1010.91
2023-02-18T04:51:39.543Z,1010.90
2023-02-18T04:52:39.502Z,1010.89
2023-02-18T04:53:39.490Z,1010.93
2023-02-18T04:54:39.469Z,1010.93
2023-02-18T04:55:39.460Z,1010.90
2023-02-18T04:56:39.457Z,1010.91
2023-02-18T04:57:39.631Z,1010.89
2023-02-18T04:58:39.430Z,1010.92
2023-02-18T04:59:39.426Z,1010.92
2023-02-18T05:00:39.435Z,1010.92
2023-02-18T05:01:39.437Z,1011.06
2023-02-18T05:02:39.528Z,1010.99
2023-02-18T05:03:39.393Z,1010.96
2023-02-18T05:04:39.383Z,1010.98
2023-02-18T05:05:39.363Z,1010.96
2023-02-18T05:06:39.542Z,1010.96
2023-02-18T05:07:39.391Z,1010.93
2023-02-18T05:08:39.340Z,1010.92
2023-02-18T05:09:39.341Z,1010.90
2023-02-18T05:10:39.316Z,1010.93
2023-02-18T05:11:39.295Z,1010.95
2023-02-18T05:12:39.296Z,1010.93
2023-02-18T05:13:39.305Z,1010.95
2023-02-18T05:14:39.308Z,1010.94
2023-02-18T05:15:39.271Z,1010.93
2023-02-18T05:16:39.256Z,1010.90
2023-02-18T05:17:39.262Z,1010.93
2023-02-18T05:18:39.282Z,1010.90
2023-02-18T05:19:39.215Z,1010.88
2023-02-18T05:20:39.252Z,1010.83
2023-02-18T05:21:39.201Z,1010.81
2023-02-18T05:22:39.298Z,1010.88
2023-02-18T05:23:39.173Z,1010.89
2023-02-18T05:24:39.250Z,1010.94
2023-02-18T05:25:39.156Z,1010.90
2023-02-18T05:26:39.191Z,1010.90
2023-02-18T05:27:39.137Z,1010.84
2023-02-18T05:28:39.127Z,1010.89
2023-02-18T05:29:39.109Z,1010.82
2023-02-18T05:30:39.102Z,1010.85
2023-02-18T05:31:39.205Z,1010.83
2023-02-18T05:32:39.097Z,1010.80
2023-02-18T05:33:39.074Z,1010.80
2023-02-18T05:34:39.075Z,1010.78
2023-02-18T05:35:39.047Z,1010.75
2023-02-18T05:36:39.055Z,1010.74
2023-02-18T05:37:39.062Z,1010.75
2023-02-18T05:38:39.003Z,1010.72
2023-02-18T05:39:39.031Z,1010.77
2023-02-18T05:40:39.019Z,1010.75
2023-02-18T05:41:39.013Z,1010.73
2023-02-18T05:42:38.987Z,1010.76
2023-02-18T05:43:39.002Z,1010.75
2023-02-18T05:44:38.947Z,1010.69
2023-02-18T05:45:38.978Z,1010.70
2023-02-18T05:46:38.979Z,1010.71
2023-02-18T05:47:38.935Z,1010.69
2023-02-18T05:48:38.852Z,1010.68
2023-02-18T05:49:38.935Z,1010.73
2023-02-18T05:50:38.881Z,1010.71
2023-02-18T05:51:38.885Z,1010.70
2023-02-18T05:52:38.884Z,1010.67
2023-02-18T05:53:38.823Z,1010.70
2023-02-18T05:54:38.888Z,1010.66
2023-02-18T05:55:38.811Z,1010.65
2023-02-18T05:56:38.801Z,1010.63
2023-02-18T05:57:38.775Z,1010.63
2023-02-18T05:58:38.753Z,1010.64
2023-02-18T05:59:38.773Z,1010.69
2023-02-18T06:00:38.723Z,1010.71
2023-02-18T06:01:38.727Z,1010.66
2023-02-18T06:02:38.775Z,1010.71
2023-02-18T06:03:38.709Z,1010.69
2023-02-18T06:04:38.684Z,1010.71
2023-02-18T06:05:38.757Z,1010.72
2023-02-18T06:06:38.667Z,1010.72
2023-02-18T06:07:38.680Z,1010.73
2023-02-18T06:08:38.638Z,1010.73
2023-02-18T06:09:38.642Z,1010.78
2023-02-18T06:10:38.624Z,1010.70
2023-02-18T06:11:38.623Z,1010.72
2023-02-18T06:12:38.612Z,1010.80
2023-02-18T06:13:38.602Z,1010.80
2023-02-18T06:14:39.855Z,1010.79
2023-02-18T06:15:38.606Z,1010.77
2023-02-18T06:16:38.567Z,1010.77
2023-02-18T06:17:38.597Z,1010.74
2023-02-18T06:18:38.591Z,1010.74
2023-02-18T06:19:38.562Z,1010.72
2023-02-18T06:20:38.539Z,1010.69
2023-02-18T06:21:38.542Z,1010.66
2023-02-18T06:22:38.519Z,1010.67
2023-02-18T06:23:38.489Z,1010.62
2023-02-18T06:24:38.487Z,1010.71
2023-02-18T06:25:38.499Z,1010.66
2023-02-18T06:26:38.452Z,1010.71
2023-02-18T06:27:38.505Z,1010.70
2023-02-18T06:28:38.510Z,1010.69
2023-02-18T06:29:38.426Z,1010.68
2023-02-18T06:30:38.566Z,1010.70
2023-02-18T06:31:38.570Z,1010.73
2023-02-18T06:32:38.400Z,1010.72
2023-02-18T06:33:38.382Z,1010.69
2023-02-18T06:34:38.383Z,1010.71
2023-02-18T06:35:38.362Z,1010.72
2023-02-18T06:36:38.362Z,1010.68
2023-02-18T06:37:38.440Z,1010.66
2023-02-18T06:38:38.323Z,1010.68
2023-02-18T06:39:38.331Z,1010.69
2023-02-18T06:40:38.321Z,1010.67
2023-02-18T06:41:38.329Z,1010.64
2023-02-18T06:42:38.412Z,1010.62
2023-02-18T06:43:38.315Z,1010.59
2023-02-18T06:44:38.270Z,1010.60
2023-02-18T06:45:38.268Z,1010.62
2023-02-18T06:46:38.309Z,1010.61
2023-02-18T06:47:38.261Z,1010.60
2023-02-18T06:48:38.235Z,1010.58
2023-02-18T06:49:38.233Z,1010.54
2023-02-18T06:50:38.193Z,1010.57
2023-02-18T06:51:38.192Z,1010.50
2023-02-18T06:52:38.238Z,1010.51
2023-02-18T06:53:38.168Z,1010.49
2023-02-18T06:54:38.203Z,1010.50
2023-02-18T06:55:38.149Z,1010.52
2023-02-18T06:56:38.136Z,1010.47
2023-02-18T06:57:38.188Z,1010.46
2023-02-18T06:58:38.131Z,1010.48
2023-02-18T06:59:38.129Z,1010.50
2023-02-18T07:00:38.139Z,1010.50
2023-02-18T07:01:38.087Z,1010.55
2023-02-18T07:02:38.150Z,1010.55
2023-02-18T07:03:38.107Z,1010.58
2023-02-18T07:04:38.079Z,1010.51
2023-02-18T07:05:38.035Z,1010.43
2023-02-18T07:06:38.052Z,1010.46
2023-02-18T07:07:38.079Z,1010.53
2023-02-18T07:08:38.214Z,1010.49
2023-02-18T07:09:38.005Z,1010.49
2023-02-18T07:10:38.001Z,1010.40
2023-02-18T07:11:37.986Z,1010.44
2023-02-18T07:12:37.984Z,1010.43
2023-02-18T07:13:37.963Z,1010.41
2023-02-18T07:14:37.983Z,1010.37
2023-02-18T07:15:38.012Z,1010.37
2023-02-18T07:16:37.958Z,1010.42
2023-02-18T07:17:37.926Z,1010.41
2023-02-18T07:18:37.925Z,1010.40
2023-02-18T07:19:37.894Z,1010.42
2023-02-18T07:20:37.950Z,1010.40
2023-02-18T07:21:37.885Z,1010.39
2023-02-18T07:22:37.892Z,1010.42
2023-02-18T07:23:37.862Z,1010.41
2023-02-18T07:24:37.875Z,1010.42
2023-02-18T07:25:37.839Z,1010.39
2023-02-18T07:26:37.843Z,1010.40
2023-02-18T07:27:37.882Z,1010.32
2023-02-18T07:28:37.804Z,1010.27
2023-02-18T07:29:37.805Z,1010.22
2023-02-18T07:30:37.876Z,1010.23
2023-02-18T07:31:37.885Z,1010.25
2023-02-18T07:32:37.784Z,1010.25
2023-02-18T07:33:37.752Z,1010.28
2023-02-18T07:34:37.755Z,1010.21
2023-02-18T07:35:37.734Z,1010.20
2023-02-18T07:36:37.740Z,1010.31
2023-02-18T07:37:37.821Z,1010.39
2023-02-18T07:38:37.701Z,1010.36
2023-02-18T07:39:37.720Z,1010.29
2023-02-18T07:40:37.693Z,1010.25
2023-02-18T07:41:37.669Z,1010.30
2023-02-18T07:42:37.678Z,1010.28
2023-02-18T07:43:37.647Z,1010.28
2023-02-18T07:44:37.635Z,1010.30
2023-02-18T07:45:37.701Z,1010.26
2023-02-18T07:46:37.615Z,1010.23
2023-02-18T07:47:37.648Z,1010.22
2023-02-18T07:48:37.600Z,1010.17
2023-02-18T07:49:37.572Z,1010.16
2023-02-18T07:50:37.574Z,1010.08
2023-02-18T07:51:37.579Z,1010.07
2023-02-18T07:52:37.547Z,1010.07
2023-02-18T07:53:37.604Z,1010.02
2023-02-18T07:54:37.618Z,1010.04
2023-02-18T07:55:37.618Z,1010.16
2023-02-18T07:56:37.504Z,1010.13
2023-02-18T07:57:37.535Z,1010.09
2023-02-18T07:58:37.524Z,1010.09
2023-02-18T07:59:37.475Z,1010.13
2023-02-18T08:00:37.483Z,1010.10
2023-02-18T08:01:37.510Z,1010.06
2023-02-18T08:02:37.463Z,1010.10
2023-02-18T08:03:37.507Z,1010.10
2023-02-18T08:04:37.655Z,1010.17
2023-02-18T08:05:37.540Z,1010.14
2023-02-18T08:06:37.477Z,1010.11
2023-02-18T08:07:37.407Z,1010.13
2023-02-18T08:08:37.482Z,1010.11
2023-02-18T08:09:37.393Z,1010.17
2023-02-18T08:10:37.372Z,1010.02
2023-02-18T08:11:37.376Z,1010.03
2023-02-18T08:12:37.345Z,1009.98
2023-02-18T08:13:37.339Z,1009.98
2023-02-18T08:14:37.393Z,1009.90
2023-02-18T08:15:37.360Z,1009.89
2023-02-18T08:16:37.405Z,1009.84
2023-02-18T08:17:37.303Z,1009.90
2023-02-18T08:18:37.333Z,1009.90
2023-02-18T08:19:37.280Z,1009.84
2023-02-18T08:20:37.295Z,1009.82
2023-02-18T08:21:37.252Z,1009.82
2023-02-18T08:22:37.240Z,1009.84
2023-02-18T08:23:37.244Z,1009.82
2023-02-18T08:24:37.228Z,1009.78
2023-02-18T08:25:37.215Z,1009.75
2023-02-18T08:26:37.217Z,1009.77
2023-02-18T08:27:37.182Z,1009.73
2023-02-18T08:28:37.216Z,1009.72
2023-02-18T08:29:37.175Z,1009.69
2023-02-18T08:30:37.268Z,1009.67
2023-02-18T08:31:37.181Z,1009.71
2023-02-18T08:32:37.141Z,1009.68
2023-02-18T08:33:37.135Z,1009.72
2023-02-18T08:34:37.124Z,1009.71
2023-02-18T08:35:37.102Z,1009.66
2023-02-18T08:36:37.098Z,1009.66
2023-02-18T08:37:53.253Z,1009.65
2023-02-18T08:38:37.240Z,1009.63
2023-02-18T08:39:39.341Z,1009.59
2023-02-18T08:40:37.066Z,1009.53
2023-02-18T08:41:37.041Z,1009.54
2023-02-18T08:42:37.984Z,1009.57
2023-02-18T08:43:37.122Z,1009.56
2023-02-18T08:44:37.021Z,1009.52
2023-02-18T08:45:36.998Z,1009.56
2023-02-18T08:46:37.205Z,1009.56
2023-02-18T08:48:15.953Z,1009.59
2023-02-18T08:48:37.001Z,1009.58
2023-02-18T08:49:37.001Z,1009.58
2023-02-18T08:50:36.957Z,1009.53
2023-02-18T08:51:36.992Z,1009.49
2023-02-18T08:52:36.932Z,1009.52
2023-02-18T08:53:36.967Z,1009.53
2023-02-18T08:54:36.910Z,1009.57
2023-02-18T08:55:36.912Z,1009.55
2023-02-18T08:56:36.901Z,1009.56
2023-02-18T08:57:36.876Z,1009.57
2023-02-18T08:58:36.906Z,1009.55
2023-02-18T08:59:36.874Z,1009.52
2023-02-18T09:00:36.895Z,1009.56
2023-02-18T09:01:36.894Z,1009.51
2023-02-18T09:02:36.838Z,1009.48
2023-02-18T09:03:37.117Z,1009.48
2023-02-18T09:04:36.820Z,1009.46
2023-02-18T09:05:36.792Z,1009.46
2023-02-18T09:06:36.804Z,1009.40
2023-02-18T09:07:36.782Z,1009.38
2023-02-18T09:08:36.780Z,1009.36
2023-02-18T09:09:36.817Z,1009.42
2023-02-18T09:10:36.759Z,1009.41
2023-02-18T09:11:36.817Z,1009.38
2023-02-18T09:12:36.717Z,1009.35
2023-02-18T09:13:36.755Z,1009.31
2023-02-18T09:14:36.714Z,1009.25
2023-02-18T09:15:36.714Z,1009.19
2023-02-18T09:16:36.695Z,1009.21
2023-02-18T09:17:36.670Z,1009.23
2023-02-18T09:18:36.705Z,1009.18
2023-02-18T09:19:36.662Z,1009.17
2023-02-18T09:20:36.650Z,1009.11
2023-02-18T09:21:36.628Z,1009.13
2023-02-18T09:22:36.628Z,1009.17
2023-02-18T09:23:36.636Z,1009.12
2023-02-18T09:24:36.600Z,1009.08
2023-02-18T09:25:36.583Z,1009.00
2023-02-18T09:26:36.585Z,1009.01
2023-02-18T09:27:36.564Z,1009.04
2023-02-18T09:28:36.561Z,1009.07
2023-02-18T09:29:36.592Z,1009.06
2023-02-18T09:30:36.629Z,1009.02
2023-02-18T09:31:36.721Z,1008.98
2023-02-18T09:32:36.532Z,1008.97
2023-02-18T09:33:36.504Z,1008.98
2023-02-18T09:34:36.487Z,1008.98
2023-02-18T09:35:36.477Z,1008.95
2023-02-18T09:36:36.469Z,1008.96
2023-02-18T09:37:36.453Z,1008.98
2023-02-18T09:38:36.882Z,1008.92
2023-02-18T09:39:36.528Z,1008.90
2023-02-18T09:40:36.437Z,1008.88
2023-02-18T09:41:36.424Z,1008.87
2023-02-18T09:42:36.421Z,1008.84
2023-02-18T09:43:36.401Z,1008.84
2023-02-18T09:44:36.448Z,1008.87
2023-02-18T09:45:36.392Z,1008.82
2023-02-18T09:46:36.495Z,1008.74
2023-02-18T09:47:36.346Z,1008.63
2023-02-18T09:48:36.356Z,1008.55
2023-02-18T09:49:36.345Z,1008.55
2023-02-18T09:50:36.342Z,1008.54
2023-02-18T09:51:36.305Z,1008.54
2023-02-18T09:52:36.320Z,1008.55
2023-02-18T09:53:36.292Z,1008.59
2023-02-18T09:54:36.273Z,1008.53
2023-02-18T09:55:42.292Z,1008.45
2023-02-18T09:56:36.251Z,1008.41
2023-02-18T09:57:36.247Z,1008.34
2023-02-18T09:58:36.253Z,1008.32
2023-02-18T09:59:36.219Z,1008.29
2023-02-18T10:00:36.244Z,1008.24
2023-02-18T10:01:36.227Z,1008.21
2023-02-18T10:02:36.199Z,1008.18
2023-02-18T10:03:36.648Z,1008.18
2023-02-18T10:04:36.187Z,1008.17
2023-02-18T10:05:36.172Z,1008.20
2023-02-18T10:06:36.148Z,1008.19
2023-02-18T10:07:36.197Z,1008.16
2023-02-18T10:08:36.175Z,1008.18
2023-02-18T10:09:36.123Z,1008.16
2023-02-18T10:10:36.116Z,1008.15
2023-02-18T10:11:36.099Z,1008.10
2023-02-18T10:12:36.096Z,1008.09
2023-02-18T10:13:36.136Z,1008.08
2023-02-18T10:14:36.076Z,1008.10
2023-02-18T10:15:36.091Z,1008.09
2023-02-18T10:16:36.142Z,1008.10
2023-02-18T10:17:36.087Z,1008.11
2023-02-18T10:18:36.040Z,1008.12
2023-02-18T10:19:36.010Z,1008.09
2023-02-18T10:20:36.006Z,1008.04
2023-02-18T10:21:36.017Z,1007.97
2023-02-18T10:22:35.980Z,1007.92
2023-02-18T10:23:35.996Z,1007.91
2023-02-18T10:24:36.061Z,1007.88
2023-02-18T10:25:35.945Z,1007.85
2023-02-18T10:26:35.953Z,1007.82
2023-02-18T10:27:35.958Z,1007.75
2023-02-18T10:28:35.964Z,1007.66
2023-02-18T10:29:35.921Z,1007.65
2023-02-18T10:30:35.957Z,1007.65
2023-02-18T10:31:35.983Z,1007.59
2023-02-18T10:32:35.890Z,1007.51
2023-02-18T10:33:35.917Z,1007.44
2023-02-18T10:34:35.858Z,1007.42
2023-02-18T10:35:35.843Z,1007.38
2023-02-18T10:36:35.841Z,1007.35
2023-02-18T10:37:35.826Z,1007.34
2023-02-18T10:38:35.834Z,1007.32
2023-02-18T10:39:35.844Z,1007.30
2023-02-18T10:40:35.813Z,1007.24
2023-02-18T10:41:35.786Z,1007.17
2023-02-18T10:42:35.798Z,1007.09
2023-02-18T10:43:35.794Z,1007.05
2023-02-18T10:44:35.788Z,1007.02
2023-02-18T10:45:35.748Z,1006.94
2023-02-18T10:46:35.744Z,1006.85
2023-02-18T10:47:35.718Z,1006.86
2023-02-18T10:48:35.758Z,1006.84
2023-02-18T10:49:35.728Z,1006.80
2023-02-18T10:50:35.705Z,1006.78
2023-02-18T10:51:35.713Z,1006.75
2023-02-18T10:52:35.676Z,1006.72
2023-02-18T10:53:35.682Z,1006.70
2023-02-18T10:54:35.665Z,1006.67
2023-02-18T10:55:35.656Z,1006.63
2023-02-18T10:56:35.732Z,1006.64
2023-02-18T10:57:35.617Z,1006.64
2023-02-18T10:58:35.638Z,1006.60
2023-02-18T10:59:35.630Z,1006.59
2023-02-18T11:00:35.596Z,1006.57
2023-02-18T11:01:35.594Z,1006.56
2023-02-18T11:02:35.583Z,1006.52
2023-02-18T11:03:35.560Z,1006.50
2023-02-18T11:04:35.655Z,1006.47
2023-02-18T11:05:35.533Z,1006.41
2023-02-18T11:06:35.552Z,1006.39
2023-02-18T11:07:35.513Z,1006.31
2023-02-18T11:08:35.500Z,1006.28
2023-02-18T11:09:35.567Z,1006.26
2023-02-18T11:10:35.497Z,1006.20
2023-02-18T11:11:35.472Z,1006.17
2023-02-18T11:12:35.475Z,1006.10
2023-02-18T11:13:35.463Z,1006.05
2023-02-18T11:14:35.448Z,1006.00
2023-02-18T11:15:35.435Z,1005.95
2023-02-18T11:16:35.419Z,1005.93
2023-02-18T11:17:35.405Z,1005.93
2023-02-18T11:18:35.431Z,1005.88
2023-02-18T11:19:35.435Z,1005.86
2023-02-18T11:20:35.393Z,1005.79
2023-02-18T11:21:35.364Z,1005.73
2023-02-18T11:22:35.373Z,1005.71
2023-02-18T11:23:35.345Z,1005.69
2023-02-18T11:24:35.654Z,1005.70
2023-02-18T11:25:35.322Z,1005.70
2023-02-18T11:26:35.310Z,1005.67
2023-02-18T11:27:35.344Z,1005.59
2023-02-18T11:28:35.295Z,1005.53
2023-02-18T11:29:35.374Z,1005.54
2023-02-18T11:30:35.321Z,1005.51
2023-02-18T11:31:35.348Z,1005.53
2023-02-18T11:32:35.252Z,1005.53
2023-02-18T11:33:35.252Z,1005.49
2023-02-18T11:34:35.275Z,1005.45
2023-02-18T11:35:35.312Z,1005.45
2023-02-18T11:36:35.265Z,1005.44
2023-02-18T11:37:35.231Z,1005.37
2023-02-18T11:38:35.193Z,1005.33
2023-02-18T11:39:35.194Z,1005.29
2023-02-18T11:40:35.173Z,1005.33
2023-02-18T11:41:35.226Z,1005.33
2023-02-18T11:42:35.167Z,1005.29
2023-02-18T11:43:35.140Z,1005.25
2023-02-18T11:44:35.186Z,1005.21
2023-02-18T11:45:35.705Z,1005.19
2023-02-18T11:46:35.153Z,1005.15
2023-02-18T11:47:35.090Z,1005.11
2023-02-18T11:48:35.100Z,1005.13
2023-02-18T11:49:35.112Z,1005.10
2023-02-18T11:50:35.050Z,1005.04
2023-02-18T11:51:35.050Z,1004.97
2023-02-18T11:52:35.037Z,1004.97
2023-02-18T11:53:35.042Z,1005.00
2023-02-18T11:54:35.034Z,1005.03
2023-02-18T11:55:35.036Z,1005.03
2023-02-18T11:56:35.027Z,1004.97
2023-02-18T11:57:34.997Z,1004.94
2023-02-18T11:58:34.990Z,1004.84
2023-02-18T11:59:35.003Z,1004.79
2023-02-18T12:00:34.966Z,1004.72
2023-02-18T12:01:34.958Z,1004.67
2023-02-18T12:02:34.974Z,1004.65
2023-02-18T12:03:35.222Z,1004.58
2023-02-18T12:04:34.935Z,1004.56
2023-02-18T12:05:34.908Z,1004.56